createdAt,value
2018-11-06T00:01:49.102Z,96619.38
2018-11-06T00:04:25.907Z,96619.06
2018-11-06T00:06:56.275Z,96620.41
2018-11-06T00:09:27.726Z,96620.33
2018-11-06T00:12:00.278Z,96629.83
2018-11-06T00:14:30.038Z,96626.16
2018-11-06T00:17:01.180Z,96625.20
2018-11-06T00:19:30.919Z,96622.81
2018-11-06T00:22:00.838Z,96623.56
2018-11-06T00:24:30.950Z,96628.67
2018-11-06T00:27:00.652Z,96624.80
2018-11-06T00:29:31.664Z,96621.97
2018-11-06T00:32:01.399Z,96621.33
2018-11-06T00:34:31.399Z,96632.38
2018-11-06T00:37:01.495Z,96620.92
2018-11-06T00:39:32.181Z,96624.67
2018-11-06T00:42:01.919Z,96620.48
2018-11-06T00:44:31.759Z,96618.61
2018-11-06T00:47:01.568Z,96620.89
2018-11-06T00:49:31.572Z,96614.86
2018-11-06T00:52:01.082Z,96605.05
2018-11-06T00:54:32.368Z,96607.12
2018-11-06T00:57:01.988Z,96598.34
2018-11-06T00:59:31.670Z,96600.73
2018-11-06T01:02:01.398Z,96603.65
2018-11-06T01:04:31.517Z,96603.88
2018-11-06T01:07:01.340Z,96609.19
2018-11-06T01:09:31.011Z,96610.73
2018-11-06T01:12:00.513Z,96609.90
2018-11-06T01:14:30.594Z,96609.49
2018-11-06T01:17:00.305Z,96610.84
2018-11-06T01:19:29.982Z,96611.88
2018-11-06T01:21:59.436Z,96622.09
2018-11-06T01:24:29.090Z,96622.81
2018-11-06T01:26:59.808Z,96632.50
2018-11-06T01:29:29.646Z,96641.90
2018-11-06T01:31:59.341Z,96640.55
2018-11-06T01:34:28.969Z,96634.13
2018-11-06T01:36:58.746Z,96637.03
2018-11-06T01:39:28.286Z,96639.42
2018-11-06T01:41:59.414Z,96636.91
2018-11-06T01:44:29.846Z,96637.43
2018-11-06T01:47:00.416Z,96630.88
2018-11-06T01:49:30.267Z,96626.81
2018-11-06T01:52:00.974Z,96627.20
2018-11-06T01:54:31.342Z,96627.41
2018-11-06T01:57:01.479Z,96636.58
2018-11-06T01:59:31.050Z,96636.77
2018-11-06T02:02:01.063Z,96625.83
2018-11-06T02:04:33.102Z,96626.67
2018-11-06T02:07:02.772Z,96621.96
2018-11-06T02:09:32.966Z,96622.16
2018-11-06T02:12:04.142Z,96625.70
2018-11-06T02:14:34.681Z,96622.88
2018-11-06T02:17:04.472Z,96625.78
2018-11-06T02:19:34.381Z,96621.91
2018-11-06T02:22:04.779Z,96615.88
2018-11-06T02:24:34.186Z,96616.72
2018-11-06T02:27:03.854Z,96621.81
2018-11-06T02:29:37.406Z,96627.44
2018-11-06T02:32:07.564Z,96630.14
2018-11-06T02:34:37.533Z,96620.53
2018-11-06T02:37:08.083Z,96625.95
2018-11-06T02:39:40.534Z,96625.83
2018-11-06T02:42:10.416Z,96620.12
2018-11-06T02:44:40.140Z,96616.25
2018-11-06T02:47:09.849Z,96615.61
2018-11-06T02:49:40.687Z,96612.06
2018-11-06T02:52:10.765Z,96613.92
2018-11-06T02:54:40.200Z,96610.06
2018-11-06T02:57:09.624Z,96607.03
2018-11-06T02:59:39.212Z,96610.80
2018-11-06T03:02:09.334Z,96615.67
2018-11-06T03:04:39.626Z,96615.67
2018-11-06T03:07:09.234Z,96610.16
2018-11-06T03:09:39.234Z,96620.48
2018-11-06T03:12:10.193Z,96614.09
2018-11-06T03:14:39.818Z,96612.10
2018-11-06T03:17:10.600Z,96609.72
2018-11-06T03:19:40.291Z,96611.45
2018-11-06T03:22:10.747Z,96620.94
2018-11-06T03:24:40.756Z,96613.36
2018-11-06T03:27:13.217Z,96608.45
2018-11-06T03:29:43.817Z,96615.00
2018-11-06T03:32:13.237Z,96611.39
2018-11-06T03:34:47.148Z,96617.20
2018-11-06T03:37:18.262Z,96618.98
2018-11-06T03:39:48.182Z,96610.84
2018-11-06T03:42:17.743Z,96610.20
2018-11-06T03:44:47.312Z,96621.75
2018-11-06T03:47:16.928Z,96621.75
2018-11-06T03:49:47.354Z,96624.45
2018-11-06T03:52:17.160Z,96621.94
2018-11-06T03:54:46.897Z,96626.75
2018-11-06T03:57:16.835Z,96623.20
2018-11-06T04:02:11.471Z,96624.75
2018-11-06T04:04:41.512Z,96624.55
2018-11-06T04:07:11.106Z,96629.66
2018-11-06T04:09:40.684Z,96619.33
2018-11-06T04:12:10.291Z,96613.78
2018-11-06T04:14:40.819Z,96607.34
2018-11-06T04:17:11.171Z,96608.88
2018-11-06T04:19:41.209Z,96614.30
2018-11-06T04:22:10.736Z,96620.23
2018-11-06T04:24:40.522Z,96628.04
2018-11-06T04:27:10.007Z,96623.78
2018-11-06T04:29:40.223Z,96626.69
2018-11-06T04:32:09.939Z,96619.39
2018-11-06T04:34:39.689Z,96626.36
2018-11-06T04:37:09.274Z,96623.14
2018-11-06T04:39:39.504Z,96621.27
2018-11-06T04:42:09.145Z,96625.84
2018-11-06T04:44:39.074Z,96618.23
2018-11-06T04:47:08.925Z,96621.98
2018-11-06T04:49:39.541Z,96620.62
2018-11-06T04:52:09.226Z,96612.20
2018-11-06T04:54:39.264Z,96606.27
2018-11-06T04:57:09.112Z,96602.72
2018-11-06T04:59:38.775Z,96613.05
2018-11-06T05:02:08.355Z,96616.56
2018-11-06T05:04:38.339Z,96623.04
2018-11-06T05:07:08.668Z,96615.43
2018-11-06T05:09:39.381Z,96612.72
2018-11-06T05:12:10.683Z,96609.69
2018-11-06T05:14:40.579Z,96606.98
2018-11-06T05:17:11.635Z,96612.91
2018-11-06T05:19:42.264Z,96611.56
2018-11-06T05:22:12.442Z,96606.34
2018-11-06T05:24:42.219Z,96600.08
2018-11-06T05:27:12.275Z,96602.27
2018-11-06T05:29:42.448Z,96603.82
2018-11-06T05:32:12.790Z,96597.38
2018-11-06T05:34:42.518Z,96599.77
2018-11-06T05:38:15.427Z,96603.63
2018-11-06T05:41:06.579Z,96614.59
2018-11-06T05:43:37.170Z,96610.95
2018-11-06T05:46:07.114Z,96605.34
2018-11-06T05:48:36.915Z,96604.30
2018-11-06T05:51:07.379Z,96605.98
2018-11-06T05:53:37.463Z,96606.20
2018-11-06T05:56:07.842Z,96611.75
2018-11-06T05:58:37.607Z,96610.20
2018-11-06T06:01:07.651Z,96608.14
2018-11-06T06:03:37.354Z,96599.81
2018-11-06T06:06:07.191Z,96596.48
2018-11-06T06:08:37.331Z,96601.09
2018-11-06T06:11:09.937Z,96596.64
2018-11-06T06:13:40.610Z,96598.31
2018-11-06T06:16:10.332Z,96593.86
2018-11-06T06:18:42.795Z,96596.78
2018-11-06T06:21:16.687Z,96600.45
2018-11-06T06:23:46.552Z,96594.80
2018-11-06T06:26:23.450Z,96595.05
2018-11-06T06:28:53.888Z,96601.53
2018-11-06T06:31:24.265Z,96603.72
2018-11-06T06:33:54.099Z,96607.84
2018-11-06T06:36:23.772Z,96608.30
2018-11-06T06:38:53.980Z,96611.20
2018-11-06T06:41:27.419Z,96606.94
2018-11-06T06:43:57.212Z,96605.38
2018-11-06T06:46:34.700Z,96602.59
2018-11-06T06:49:08.076Z,96607.06
2018-11-06T06:51:37.862Z,96608.55
2018-11-06T06:54:08.034Z,96615.64
2018-11-06T06:56:37.639Z,96618.28
2018-11-06T06:59:07.871Z,96619.92
2018-11-06T07:01:38.196Z,96618.37
2018-11-06T07:04:08.008Z,96620.68
2018-11-06T07:06:38.662Z,96624.03
2018-11-06T07:09:10.934Z,96619.77
2018-11-06T07:11:40.765Z,96620.05
2018-11-06T07:14:11.317Z,96619.66
2018-11-06T07:16:41.460Z,96624.04
2018-11-06T07:19:11.482Z,96626.88
2018-11-06T07:21:41.178Z,96633.45
2018-11-06T07:24:11.275Z,96634.38
2018-11-06T07:26:41.145Z,96633.55
2018-11-06T07:29:10.748Z,96636.06
2018-11-06T07:31:40.905Z,96642.96
2018-11-06T07:34:10.583Z,96647.15
2018-11-06T07:36:40.465Z,96652.58
2018-11-06T07:39:14.167Z,96643.16
2018-11-06T07:41:43.803Z,96647.75
2018-11-06T07:44:13.803Z,96646.52
2018-11-06T07:46:43.809Z,96650.91
2018-11-06T07:49:15.730Z,96652.06
2018-11-06T07:51:48.990Z,96652.18
2018-11-06T07:54:18.983Z,96652.58
2018-11-06T07:56:48.537Z,96650.70
2018-11-06T07:59:18.239Z,96660.01
2018-11-06T08:01:48.195Z,96669.83
2018-11-06T08:04:17.772Z,96663.67
2018-11-06T08:06:47.459Z,96671.06
2018-11-06T08:09:18.022Z,96681.73
2018-11-06T08:11:47.650Z,96685.59
2018-11-06T08:14:17.713Z,96689.16
2018-11-06T08:16:47.576Z,96689.06
2018-11-06T08:19:17.267Z,96689.59
2018-11-06T08:21:47.628Z,96695.14
2018-11-06T08:24:18.535Z,96691.15
2018-11-06T08:26:48.464Z,96688.23
2018-11-06T08:29:18.784Z,96688.87
2018-11-06T08:31:48.805Z,96679.69
2018-11-06T08:34:18.194Z,96675.76
2018-11-06T08:36:47.927Z,96672.28
2018-11-06T08:39:18.302Z,96675.11
2018-11-06T08:41:48.112Z,96671.67
2018-11-06T08:44:18.408Z,96671.80
2018-11-06T08:46:48.335Z,96666.97
2018-11-06T08:49:18.210Z,96678.78
2018-11-06T08:51:48.397Z,96673.46
2018-11-06T08:54:18.440Z,96670.83
2018-11-06T08:56:48.427Z,96673.14
2018-11-06T08:59:18.091Z,96674.49
2018-11-06T09:01:47.499Z,96675.65
2018-11-06T09:04:17.491Z,96672.73
2018-11-06T09:06:48.038Z,96666.56
2018-11-06T09:09:18.065Z,96659.46
2018-11-06T09:11:47.703Z,96654.86
2018-11-06T09:14:17.178Z,96666.03
2018-11-06T09:16:46.802Z,96664.05
2018-11-06T09:19:16.399Z,96659.13
2018-11-06T09:21:46.599Z,96659.12
2018-11-06T09:24:16.516Z,96653.69
2018-11-06T09:26:46.107Z,96658.91
2018-11-06T09:29:16.136Z,96650.03
2018-11-06T09:31:46.080Z,96657.98
2018-11-06T09:34:15.866Z,96657.25
2018-11-06T09:36:45.963Z,96655.13
2018-11-06T09:39:16.553Z,96651.38
2018-11-06T09:41:46.510Z,96654.41
2018-11-06T09:44:16.226Z,96652.53
2018-11-06T09:46:46.099Z,96653.16
2018-11-06T09:49:16.330Z,96651.59
2018-11-06T09:51:47.229Z,96651.35
2018-11-06T09:54:16.728Z,96653.34
2018-11-06T09:56:47.198Z,96649.58
2018-11-06T09:59:16.993Z,96644.67
2018-11-06T10:01:47.664Z,96641.11
2018-11-06T10:04:18.408Z,96643.10
2018-11-06T10:06:48.915Z,96649.17
2018-11-06T10:09:18.604Z,96648.20
2018-11-06T10:11:48.184Z,96648.09
2018-11-06T10:14:18.182Z,96649.77
2018-11-06T10:16:48.721Z,96648.00
2018-11-06T10:19:18.519Z,96654.56
2018-11-06T10:21:48.678Z,96656.23
2018-11-06T10:24:18.903Z,96659.27
2018-11-06T10:26:49.350Z,96667.53
2018-11-06T10:29:19.200Z,96659.69
2018-11-06T10:31:49.146Z,96664.67
2018-11-06T10:34:18.831Z,96659.55
2018-11-06T10:36:49.285Z,96664.41
2018-11-06T10:39:19.889Z,96665.03
2018-11-06T10:41:49.520Z,96662.38
2018-11-06T10:44:19.504Z,96661.34
2018-11-06T10:46:49.359Z,96657.05
2018-11-06T10:49:19.264Z,96658.20
2018-11-06T10:51:49.332Z,96647.70
2018-11-06T10:54:19.317Z,96645.55
2018-11-06T10:56:49.769Z,96640.38
2018-11-06T10:59:19.376Z,96641.84
2018-11-06T11:01:54.198Z,96640.80
2018-11-06T11:04:25.557Z,96644.98
2018-11-06T11:06:55.590Z,96637.66
2018-11-06T11:09:25.219Z,96634.73
2018-11-06T11:11:55.191Z,96635.84
2018-11-06T11:14:25.074Z,96635.64
2018-11-06T11:16:54.991Z,96630.51
2018-11-06T11:19:26.439Z,96628.10
2018-11-06T11:21:56.373Z,96622.24
2018-11-06T11:24:26.200Z,96619.83
2018-11-06T11:26:56.127Z,96617.18
2018-11-06T11:29:25.845Z,96613.94
2018-11-06T11:31:56.186Z,96607.76
2018-11-06T11:34:26.160Z,96606.40
2018-11-06T11:36:56.267Z,96604.30
2018-11-06T11:39:26.101Z,96608.91
2018-11-06T11:41:56.339Z,96603.25
2018-11-06T11:44:26.034Z,96600.84
2018-11-06T11:46:57.838Z,96601.44
2018-11-06T11:49:27.566Z,96597.04
2018-11-06T11:52:02.047Z,96603.63
2018-11-06T11:54:36.393Z,96604.26
2018-11-06T11:57:07.311Z,96602.69
2018-11-06T11:59:36.979Z,96601.64
2018-11-06T12:02:07.181Z,96600.06
2018-11-06T12:04:37.127Z,96598.98
2018-11-06T12:07:07.156Z,96596.05
2018-11-06T12:09:36.688Z,96595.00
2018-11-06T12:12:06.738Z,96591.75
2018-11-06T12:14:36.667Z,96588.50
2018-11-06T12:17:10.508Z,96589.13
2018-11-06T12:19:40.291Z,96586.41
2018-11-06T12:22:11.138Z,96582.32
2018-11-06T12:24:41.329Z,96566.30
2018-11-06T12:27:11.358Z,96561.69
2018-11-06T12:29:40.766Z,96559.28
2018-11-06T12:32:10.421Z,96566.09
2018-11-06T12:34:41.131Z,96568.25
2018-11-06T12:37:11.139Z,96567.20
2018-11-06T12:39:40.839Z,96567.20
2018-11-06T12:42:10.438Z,96556.84
2018-11-06T12:44:41.485Z,96559.88
2018-11-06T12:47:11.735Z,96554.42
2018-11-06T12:49:41.571Z,96560.19
2018-11-06T12:52:11.704Z,96562.91
2018-11-06T12:54:41.330Z,96560.19
2018-11-06T12:57:11.202Z,96557.45
2018-11-06T12:59:40.665Z,96559.34
2018-11-06T13:04:34.399Z,96558.51
2018-11-06T13:07:05.761Z,96553.59
2018-11-06T13:09:38.403Z,96555.79
2018-11-06T13:12:08.939Z,96558.82
2018-11-06T13:14:38.553Z,96554.95
2018-11-06T13:17:08.719Z,96548.67
2018-11-06T13:19:38.763Z,96541.59
2018-11-06T13:22:08.730Z,96540.50
2018-11-06T13:24:38.543Z,96532.59
2018-11-06T13:27:08.857Z,96536.14
2018-11-06T13:29:44.475Z,96530.70
2018-11-06T13:32:16.249Z,96529.55
2018-11-06T13:34:46.172Z,96523.59
2018-11-06T13:37:16.139Z,96526.37
2018-11-06T13:39:47.200Z,96527.73
2018-11-06T13:42:17.132Z,96523.13
2018-11-06T13:44:48.243Z,96516.32
2018-11-06T13:47:19.352Z,96517.98
2018-11-06T13:49:49.132Z,96519.88
2018-11-06T13:52:18.713Z,96512.33
2018-11-06T13:54:48.900Z,96509.92
2018-11-06T13:57:18.546Z,96510.97
2018-11-06T13:59:48.260Z,96508.03
2018-11-06T14:02:18.863Z,96512.95
2018-11-06T14:04:48.679Z,96507.50
2018-11-06T14:07:19.023Z,96510.54
2018-11-06T14:09:49.182Z,96507.81
2018-11-06T14:12:18.974Z,96515.98
2018-11-06T14:14:48.843Z,96508.86
2018-11-06T14:17:19.942Z,96507.81
2018-11-06T14:19:49.685Z,96501.23
2018-11-06T14:22:21.720Z,96505.31
2018-11-06T14:24:52.086Z,96504.47
2018-11-06T14:27:22.250Z,96505.00
2018-11-06T14:29:51.660Z,96508.25
2018-11-06T14:32:21.908Z,96513.38
2018-11-06T14:34:52.490Z,96518.83
2018-11-06T14:37:22.884Z,96512.23
2018-11-06T14:39:52.647Z,96516.84
2018-11-06T14:42:23.484Z,96517.89
2018-11-06T14:44:53.648Z,96511.64
2018-11-06T14:47:24.736Z,96513.22
2018-11-06T14:49:55.292Z,96518.36
2018-11-06T14:52:26.715Z,96521.30
2018-11-06T14:54:56.577Z,96517.42
2018-11-06T14:57:27.032Z,96522.56
2018-11-06T14:59:57.015Z,96526.33
2018-11-06T15:02:26.891Z,96532.83
2018-11-06T15:04:56.636Z,96524.07
2018-11-06T15:07:27.600Z,96524.50
2018-11-06T15:09:58.058Z,96527.75
2018-11-06T15:12:28.896Z,96526.91
2018-11-06T15:14:58.308Z,96527.13
2018-11-06T15:17:28.198Z,96526.02
2018-11-06T15:19:59.264Z,96519.95
2018-11-06T15:22:29.295Z,96525.61
2018-11-06T15:24:59.650Z,96528.54
2018-11-06T15:27:29.845Z,96521.11
2018-11-06T15:29:59.467Z,96520.80
2018-11-06T15:32:29.426Z,96515.82
2018-11-06T15:34:59.130Z,96522.84
2018-11-06T15:37:29.146Z,96520.33
2018-11-06T15:42:32.088Z,96514.20
2018-11-06T15:45:02.419Z,96511.69
2018-11-06T15:47:32.251Z,96506.56
2018-11-06T15:50:02.330Z,96507.92
2018-11-06T15:52:32.081Z,96505.63
2018-11-06T15:55:01.911Z,96503.13
2018-11-06T15:57:33.908Z,96505.01
2018-11-06T16:00:04.432Z,96503.86
2018-11-06T16:02:34.827Z,96503.33
2018-11-06T16:06:07.503Z,96504.69
2018-11-06T16:08:38.123Z,96505.46
2018-11-06T16:11:07.872Z,96502.64
2018-11-06T16:13:37.603Z,96507.56
2018-11-06T16:16:08.590Z,96509.97
2018-11-06T16:18:38.248Z,96515.94
2018-11-06T16:21:07.899Z,96517.50
2018-11-06T16:23:37.340Z,96522.11
2018-11-06T16:26:07.452Z,96526.92
2018-11-06T16:28:37.084Z,96529.58
2018-11-06T16:31:07.157Z,96526.55
2018-11-06T16:33:36.858Z,96529.47
2018-11-06T16:36:07.160Z,96527.28
2018-11-06T16:38:36.855Z,96525.61
2018-11-06T16:41:06.845Z,96522.89
2018-11-06T16:43:36.459Z,96524.56
2018-11-06T16:46:06.008Z,96524.87
2018-11-06T16:48:35.876Z,96528.42
2018-11-06T16:51:05.455Z,96528.73
2018-11-06T16:53:35.270Z,96531.67
2018-11-06T16:56:06.596Z,96537.11
2018-11-06T16:58:36.285Z,96532.72
2018-11-06T17:01:09.267Z,96531.45
2018-11-06T17:03:41.341Z,96528.95
2018-11-06T17:06:16.420Z,96530.09
2018-11-06T17:08:48.331Z,96532.30
2018-11-06T17:11:18.039Z,96530.94
2018-11-06T17:13:50.214Z,96530.94
2018-11-06T17:16:20.071Z,96532.81
2018-11-06T17:18:49.926Z,96542.34
2018-11-06T17:21:20.017Z,96547.01
2018-11-06T17:23:49.889Z,96556.77
2018-11-06T17:26:20.110Z,96558.66
2018-11-06T17:28:49.789Z,96561.38
2018-11-06T17:31:19.865Z,96571.59
2018-11-06T17:33:49.726Z,96575.45
2018-11-06T17:36:21.868Z,96569.70
2018-11-06T17:38:52.365Z,96568.87
2018-11-06T17:41:22.665Z,96576.71
2018-11-06T17:43:53.634Z,96580.58
2018-11-06T17:46:24.472Z,96585.19
2018-11-06T17:48:54.482Z,96584.66
2018-11-06T17:51:24.384Z,96589.58
2018-11-06T17:53:54.256Z,96588.11
2018-11-06T17:56:25.143Z,96590.41
2018-11-06T17:58:55.101Z,96591.98
2018-11-06T18:01:25.597Z,96593.34
2018-11-06T18:03:56.206Z,96595.54
2018-11-06T18:06:27.781Z,96599.72
2018-11-06T18:08:59.532Z,96611.44
2018-11-06T18:11:30.528Z,96606.84
2018-11-06T18:14:02.446Z,96606.84
2018-11-06T18:16:33.840Z,96601.40
2018-11-06T18:19:03.768Z,96605.48
2018-11-06T18:21:35.176Z,96605.48
2018-11-06T18:24:05.432Z,96610.70
2018-11-06T18:29:05.206Z,96611.44
2018-11-06T18:31:35.219Z,96600.25
2018-11-06T18:34:05.153Z,96609.56
2018-11-06T18:36:35.504Z,96609.56
2018-11-06T18:39:08.604Z,96608.20
2018-11-06T18:41:38.712Z,96628.98
2018-11-06T18:44:09.243Z,96624.91
2018-11-06T18:46:39.203Z,96627.31
2018-11-06T18:49:10.206Z,96627.09
2018-11-06T18:51:39.980Z,96630.13
2018-11-06T18:54:10.112Z,96634.11
2018-11-06T18:56:39.747Z,96629.22
2018-11-06T18:59:09.851Z,96637.38
2018-11-06T19:01:41.082Z,96634.66
2018-11-06T19:04:12.155Z,96644.70
2018-11-06T19:06:42.372Z,96641.15
2018-11-06T19:09:13.447Z,96649.31
2018-11-06T19:11:44.007Z,96643.62
2018-11-06T19:14:13.591Z,96646.34
2018-11-06T19:16:43.885Z,96636.41
2018-11-06T19:19:14.355Z,96642.38
2018-11-06T19:21:45.481Z,96647.29
2018-11-06T19:24:15.392Z,96644.88
2018-11-06T19:26:45.274Z,96646.14
2018-11-06T19:29:15.205Z,96648.78
2018-11-06T19:31:45.129Z,96664.59
2018-11-06T19:34:15.270Z,96667.58
2018-11-06T19:36:46.503Z,96665.39
2018-11-06T19:39:19.173Z,96669.19
2018-11-06T19:41:54.238Z,96671.38
2018-11-06T19:44:24.114Z,96668.95
2018-11-06T19:46:54.794Z,96666.23
2018-11-06T19:49:25.340Z,96672.50
2018-11-06T19:51:57.007Z,96680.45
2018-11-06T19:54:28.348Z,96685.58
2018-11-06T19:56:58.458Z,96685.37
2018-11-06T19:59:28.388Z,96667.90
2018-11-06T20:01:57.972Z,96662.14
2018-11-06T20:04:29.843Z,96665.94
2018-11-06T20:07:00.126Z,96656.42
2018-11-06T20:09:31.408Z,96664.27
2018-11-06T20:12:01.559Z,96657.78
2018-11-06T20:14:31.442Z,96657.78
2018-11-06T20:17:01.226Z,96660.19
2018-11-06T20:19:31.874Z,96652.86
2018-11-06T20:22:01.527Z,96663.95
2018-11-06T20:24:31.378Z,96664.97
2018-11-06T20:27:02.193Z,96669.27
2018-11-06T20:29:32.927Z,96661.31
2018-11-06T20:32:04.009Z,96652.10
2018-11-06T20:34:34.817Z,96651.89
2018-11-06T20:37:05.390Z,96660.69
2018-11-06T20:39:37.045Z,96659.84
2018-11-06T20:42:07.315Z,96657.02
2018-11-06T20:44:39.946Z,96653.01
2018-11-06T20:47:09.698Z,96645.69
2018-11-06T20:49:41.504Z,96651.44
2018-11-06T20:52:11.766Z,96659.08
2018-11-06T20:54:42.079Z,96660.34
2018-11-06T20:57:11.754Z,96657.93
2018-11-06T20:59:41.760Z,96651.12
2018-11-06T21:02:11.689Z,96655.42
2018-11-06T21:04:42.047Z,96654.51
2018-11-06T21:07:13.704Z,96653.33
2018-11-06T21:09:43.739Z,96648.41
2018-11-06T21:12:13.607Z,96653.11
2018-11-06T21:14:44.326Z,96654.47
2018-11-06T21:17:14.073Z,96655.83
2018-11-06T21:19:44.960Z,96657.72
2018-11-06T21:22:15.009Z,96663.47
2018-11-06T21:24:45.249Z,96665.25
2018-11-06T21:27:15.693Z,96664.73
2018-11-06T21:29:46.278Z,96662.22
2018-11-06T21:32:16.723Z,96670.09
2018-11-06T21:34:46.784Z,96670.52
2018-11-06T21:37:16.451Z,96678.88
2018-11-06T21:39:46.995Z,96678.36
2018-11-06T21:42:16.611Z,96681.30
2018-11-06T21:44:46.443Z,96683.38
2018-11-06T21:47:16.571Z,96683.63
2018-11-06T21:49:46.266Z,96689.80
2018-11-06T21:52:18.246Z,96680.48
2018-11-06T21:54:51.781Z,96679.64
2018-11-06T21:57:21.742Z,96682.69
2018-11-06T21:59:52.504Z,96682.37
2018-11-06T22:02:22.069Z,96685.50
2018-11-06T22:04:55.193Z,96693.87
2018-11-06T22:07:24.647Z,96695.78
2018-11-06T22:09:55.524Z,96698.40
2018-11-06T22:12:26.296Z,96697.03
2018-11-06T22:14:56.149Z,96696.06
2018-11-06T22:17:26.145Z,96699.83
2018-11-06T22:19:56.480Z,96699.19
2018-11-06T22:22:26.290Z,96694.31
2018-11-06T22:24:55.744Z,96695.88
2018-11-06T22:27:27.490Z,96692.00
2018-11-06T22:29:57.761Z,96689.49
2018-11-06T22:32:29.386Z,96697.85
2018-11-06T22:34:59.223Z,96695.66
2018-11-06T22:37:28.915Z,96688.23
2018-11-06T22:39:58.666Z,96694.75
2018-11-06T22:42:28.893Z,96699.34
2018-11-06T22:44:59.676Z,96701.95
2018-11-06T22:47:29.119Z,96699.76
2018-11-06T22:49:58.881Z,96698.29
2018-11-06T22:52:29.576Z,96705.52
2018-11-06T22:55:00.403Z,96714.52
2018-11-06T22:57:30.195Z,96714.93
2018-11-06T22:59:59.940Z,96711.38
2018-11-06T23:02:30.500Z,96709.17
2018-11-06T23:05:00.101Z,96715.98
2018-11-06T23:07:35.352Z,96706.14
2018-11-06T23:10:05.768Z,96706.03
2018-11-06T23:12:35.752Z,96693.72
2018-11-06T23:15:05.443Z,96687.34
2018-11-06T23:17:35.013Z,96681.90
2018-11-06T23:20:19.628Z,96676.98
2018-11-06T23:22:49.549Z,96681.47
2018-11-06T23:25:19.066Z,96677.63
2018-11-06T23:27:50.121Z,96688.50
2018-11-06T23:30:19.830Z,96676.69
2018-11-06T23:32:49.258Z,96675.33
2018-11-06T23:35:18.647Z,96676.05
2018-11-06T23:37:48.361Z,96677.09
2018-11-06T23:40:18.452Z,96685.78
2018-11-06T23:42:49.313Z,96702.48
2018-11-06T23:45:19.149Z,96695.82
2018-11-06T23:47:49.177Z,96701.14
2018-11-06T23:50:20.312Z,96698.31
2018-11-06T23:52:49.957Z,96701.23
2018-11-06T23:55:19.629Z,96700.31
2018-11-06T23:57:49.195Z,96697.16
